Startpagina
METAR-TAF:

METAR-TAF

Vliegvelden :

Internationale luchthaven Tocumen

Tocumen, Panama

breedte: 09-03N, lengte: 079-22W, hoogte: 45 m

Actueel weer

Dit bericht is 10 minuten geleden gemaakt, om 08:00 UTC
Weinig wind
Temperatuur 23°C
Vochtigheid 100%
Druk 1012 hPa
Zicht 10 km of meer
Weinig wolken op 1800 ft

METAR: MPTO 150800Z 00000KT 9999 FEW018 23/23 Q1012 NOSIG

Tijdstip: 03:10 (08:10 UTC)

Verwachting

Dit bericht is 2 uur en het 40 minuten geleden gemaakt, om 05:30 UTC
Verwachting geldig van 15 om 06 UTC tot 16 om 12 UTC
Wind kt uit het noorden
Zicht 10 km of meer
Verspreide wolken op 1800 ft
Wijzigt naar
van 15 om 14 UTC tot 15 om 18 UTC
Wind 6 kt uit het westnoordwesten
Kans 30% :
Tijdelijke
van 15 om 18 UTC tot 15 om 20 UTC
Wind 6 kt uit het zuidzuidoosten
Zicht: 6000 m
Verspreide wolken op 1500 ft, Cumulonimbus.
Verspreide wolken op 8000 ft
onweer, regen

TAF: MPTO 150530Z 1506/1612 00000KT 9999 SCT018 BECMG 1514/1518 29006KT PROB30 TEMPO 1518/1520 15006KT 6000 TSRA SCT015CB SCT080

Waarnemingen en weersverwachtingen van meer dan 4000 vliegvelden (METAR en TAF).

De beschikbare stations zijn de gele en rode punten op de kaart.

Ga met uw muis naar het station om de naam te zien.

Klik dan om waarnemingen en weersverwachtingen te zien.

kaart wijzigen: klik op de groene knoppen met een zwart kruis om in te zoomen, op de groene knop met een streepje om uit te zoomen of op de groene pijlen voor aangrenzende kaarten.


METAR-TAF: